Time;durP1;ratioP1;P1;durP2;ratioP2;P2;SDS_P1;SDS_P2;PMS_P1;PMS_P2;Temp;Humidity;BMP_temperature;BMP_pressure;BME280_temperature;BME280_humidity;BME280_pressure;Samples;Min_cycle;Max_cycle;Signal;HPM_P1;HPM_P2
2022/06/28 00:00:27;;;;;;;0.52;0.40;;;23.90;68.80;;;22.50;52.90;102063.53;5053896;28;20037;-52
2022/06/28 00:02:53;;;;;;;1.02;0.30;;;23.90;88.50;;;22.49;52.76;102064.59;5053671;28;20037;-50
2022/06/28 00:05:20;;;;;;;2.15;0.45;;;24.00;88.80;;;22.50;52.86;102068.22;5053892;28;20039;-50
2022/06/28 00:07:46;;;;;;;1.55;0.50;;;24.00;88.60;;;22.48;52.83;102057.34;5054106;28;20117;-50
2022/06/28 00:10:15;;;;;;;0.63;0.32;;;23.50;88.40;;;22.48;52.85;102068.44;5053744;28;20065;-49
2022/06/28 00:12:41;;;;;;;0.77;0.40;;;23.90;88.50;;;22.48;52.88;102062.88;5053982;28;20429;-49
2022/06/28 00:17:55;;;;;;;1.23;0.30;;;23.70;88.50;;;22.45;52.86;102063.31;5053881;28;20052;-50
2022/06/28 00:20:21;;;;;;;1.75;0.60;;;23.90;88.60;;;22.45;52.82;102057.75;5053561;28;20033;-50
2022/06/28 00:22:47;;;;;;;1.15;0.50;;;24.00;88.80;;;22.45;52.87;102068.03;5053413;28;20056;-50
2022/06/28 00:25:14;;;;;;;1.13;0.50;;;23.70;88.60;;;22.44;52.68;102064.38;5052605;28;20036;-50
2022/06/28 00:27:40;;;;;;;1.40;0.50;;;23.90;88.60;;;22.44;52.89;102063.53;5053369;28;20036;-49
2022/06/28 00:30:08;;;;;;;1.58;0.43;;;23.60;88.50;;;22.44;52.87;102055.22;5052097;28;20029;-52
2022/06/28 00:32:34;;;;;;;1.63;0.40;;;23.90;88.60;;;22.43;52.92;102064.59;5053261;28;20041;-59
2022/06/28 00:35:01;;;;;;;1.60;0.40;;;23.90;88.40;;;22.42;52.94;102060.94;5053552;28;20571;-52
2022/06/28 00:37:27;;;;;;;0.95;0.30;;;23.80;88.60;;;22.42;52.82;102062.91;5053186;28;20067;-50
2022/06/28 00:39:53;;;;;;;0.73;0.50;;;23.30;88.60;;;22.42;52.94;102062.91;5051988;28;20025;-50
2022/06/28 00:42:19;;;;;;;0.68;0.52;;;23.60;89.00;;;22.41;52.82;102064.81;5052816;28;20053;-49
2022/06/28 00:44:46;;;;;;;0.52;0.40;;;23.90;67.30;;;22.40;52.88;102059.47;5053092;28;20167;-50
2022/06/28 00:47:13;;;;;;;0.68;0.43;;;23.90;89.00;;;22.40;52.92;102063.09;5053085;28;20041;-49
2022/06/28 00:49:42;;;;;;;0.40;0.30;;;23.90;89.20;;;22.39;53.00;102068.88;5053090;28;20033;-49
2022/06/28 00:52:11;;;;;;;1.17;0.50;;;23.80;73.90;;;22.38;52.92;102069.91;5053012;28;20036;-49
2022/06/28 00:54:39;;;;;;;0.98;0.35;;;23.60;89.60;;;22.38;52.85;102068.00;5053002;28;20291;-51
2022/06/28 00:57:06;;;;;;;0.68;0.30;;;24.00;89.70;;;22.36;52.88;102074.81;5052806;28;20068;-49
2022/06/28 00:59:32;;;;;;;0.73;0.40;;;23.80;70.50;;;22.36;52.90;102070.09;5052873;28;20037;-50
2022/06/28 01:02:00;;;;;;;1.88;0.40;;;23.90;69.10;;;22.35;52.87;102082.28;5052560;28;20445;-50
2022/06/28 01:04:26;;;;;;;1.05;0.20;;;23.90;90.00;;;22.36;52.79;102075.66;5052703;28;20395;-50
2022/06/28 01:06:54;;;;;;;0.75;0.47;;;24.00;90.20;;;22.35;52.96;102071.19;5052688;28;20029;-51
2022/06/28 01:09:20;;;;;;;0.57;0.20;;;23.60;90.00;;;22.35;52.62;102070.34;5052630;28;20044;-50
2022/06/28 01:11:47;;;;;;;1.73;0.52;;;23.90;69.30;;;22.34;52.75;102076.94;5052874;28;20441;-59
2022/06/28 01:14:13;;;;;;;0.63;0.40;;;23.60;90.00;;;22.32;52.84;102079.94;5052465;28;20040;-59
2022/06/28 01:16:39;;;;;;;2.03;0.43;;;23.40;89.50;;;22.33;52.90;102076.06;5052525;28;20041;-59
2022/06/28 01:19:06;;;;;;;0.55;0.38;;;23.50;89.90;;;22.31;52.95;102078.22;5051321;28;20126;-59
2022/06/28 01:21:36;;;;;;;1.23;0.60;;;23.70;56.90;;;22.31;52.73;102083.75;5052328;28;20037;-59
2022/06/28 01:24:03;;;;;;;1.17;0.43;;;23.80;90.50;;;22.31;52.82;102080.13;5052697;28;20455;-59
2022/06/28 01:26:30;;;;;;;0.82;0.32;;;23.90;90.10;;;22.30;52.88;102078.44;5052647;28;20044;-59
2022/06/28 01:28:56;;;;;;;1.10;0.52;;;;;;;22.29;52.83;102082.25;5052694;28;20033;-49
2022/06/28 01:31:23;;;;;;;1.38;0.40;;;23.60;56.70;;;22.29;52.70;102085.88;5052405;28;20064;-50
2022/06/28 01:33:52;;;;;;;1.50;0.50;;;23.80;89.90;;;22.28;52.92;102073.09;5052361;28;20065;-50
2022/06/28 01:36:18;;;;;;;1.95;0.52;;;23.80;90.00;;;22.27;52.93;102079.69;5052349;28;20025;-50
2022/06/28 01:38:44;;;;;;;1.27;0.47;;;;;;;22.28;52.93;102086.09;5051115;28;20091;-50
2022/06/28 01:43:56;;;;;;;0.85;0.57;;;23.40;90.00;;;22.25;52.90;102084.59;5052242;28;20044;-51
2022/06/28 01:46:23;;;;;;;0.75;0.45;;;23.30;62.20;;;22.25;52.83;102090.13;5050960;28;20029;-51
2022/06/28 01:48:48;;;;;;;1.52;0.60;;;23.50;88.20;;;22.25;52.87;102083.72;5052245;28;20033;-59
2022/06/28 01:51:14;;;;;;;0.50;0.40;;;;;;;22.24;52.84;102088.41;5052107;28;20052;-59
2022/06/28 01:53:40;;;;;;;1.42;0.40;;;23.80;70.40;;;22.24;52.83;102090.34;5052099;28;20033;-59
2022/06/28 01:56:06;;;;;;;1.75;0.55;;;;;;;22.23;52.93;102089.50;5052400;28;20443;-59
2022/06/28 01:58:32;;;;;;;1.55;0.40;;;;;;;22.23;52.67;102091.41;5052005;28;20037;-59
2022/06/28 02:00:58;;;;;;;1.67;0.52;;;;;;;22.22;52.81;102090.56;5051936;28;20033;-58
2022/06/28 02:03:24;;;;;;;1.13;0.35;;;;;;;22.22;52.81;102096.09;5051902;28;20112;-59
2022/06/28 02:05:50;;;;;;;1.10;0.30;;;;;;;22.22;52.66;102092.47;5052029;28;20037;-51
2022/06/28 02:08:16;;;;;;;0.50;0.30;;;;;;;22.20;52.84;102091.81;5051957;28;20037;-49
2022/06/28 02:10:43;;;;;;;1.50;0.30;;;;;;;22.20;52.90;102092.69;5051939;28;20041;-50
2022/06/28 02:13:08;;;;;;;1.35;0.40;;;23.30;80.90;;;22.19;52.89;102090.97;5051943;28;20033;-50
2022/06/28 02:15:34;;;;;;;1.58;0.43;;;;;;;22.19;52.73;102088.19;5051874;28;20041;-50
2022/06/28 02:18:00;;;;;;;0.70;0.22;;;;;;;22.18;52.90;102099.50;5051881;28;20061;-50
2022/06/28 02:20:26;;;;;;;1.38;0.45;;;23.80;69.10;;;22.19;52.81;102101.19;5052041;28;20426;-49
2022/06/28 02:22:52;;;;;;;1.08;0.40;;;23.40;76.60;;;22.17;52.82;102098.66;5051857;28;20475;-50
2022/06/28 02:25:18;;;;;;;1.58;0.45;;;;;;;22.18;52.85;102099.50;5051915;28;20118;-59
2022/06/28 02:27:44;;;;;;;1.52;0.70;;;23.70;70.60;;;22.17;52.81;102092.25;5051795;28;20082;-59
2022/06/28 02:30:11;;;;;;;0.80;0.40;;;23.30;57.00;;;22.16;52.85;102102.47;5051755;28;20471;-59
2022/06/28 02:32:37;;;;;;;1.52;0.47;;;23.60;90.10;;;22.15;52.80;102100.78;5051936;28;20163;-59
2022/06/28 02:40:31;;;;;;;0.85;0.30;;;23.60;90.30;;;22.14;52.95;102110.16;5051650;28;20411;-59
2022/06/28 02:43:00;;;;;;;2.85;0.60;;;23.20;90.30;;;22.11;52.90;102100.34;5051478;28;20049;-59
2022/06/28 02:45:29;;;;;;;1.08;0.38;;;23.40;90.20;;;22.13;52.84;102116.75;5051601;28;20181;-59
2022/06/28 02:47:56;;;;;;;1.13;0.47;;;23.70;90.40;;;22.11;52.66;102111.41;5051662;28;20032;-59
2022/06/28 02:50:22;;;;;;;1.27;0.40;;;23.70;90.40;;;22.10;52.95;102111.63;5055070;28;20236;-59
2022/06/28 02:52:48;;;;;;;0.85;0.25;;;23.60;90.40;;;22.10;52.78;102118.00;5055173;28;20108;-59
2022/06/28 02:55:14;;;;;;;0.73;0.40;;;23.70;90.40;;;22.09;52.84;102124.59;5055208;28;20047;-59
2022/06/28 02:57:40;;;;;;;0.70;0.30;;;23.30;90.20;;;22.09;52.69;102123.78;5055087;28;20045;-59
2022/06/28 03:00:14;;;;;;;1.05;0.40;;;23.00;90.10;;;22.09;52.86;102121.00;5055155;28;20040;-59
2022/06/28 03:02:42;;;;;;;1.17;0.32;;;25.00;58.00;;;22.08;52.89;102127.59;5055146;28;20044;-49
2022/06/28 03:05:12;;;;;;;2.42;0.40;;;23.40;57.30;;;22.07;52.78;102131.44;5055297;28;20029;-51
2022/06/28 03:07:38;;;;;;;1.20;0.30;;;23.50;90.00;;;22.07;52.78;102126.75;5055194;28;20043;-49
2022/06/28 03:10:05;;;;;;;1.88;0.50;;;23.20;89.80;;;22.06;52.83;102136.09;5054931;28;20483;-50
2022/06/28 03:12:31;;;;;;;1.23;0.40;;;23.30;89.60;;;22.05;52.82;102134.41;5054732;28;20033;-50
2022/06/28 03:14:57;;;;;;;0.55;0.30;;;23.60;89.70;;;22.04;52.97;102138.25;5054756;28;20036;-50
2022/06/28 03:17:23;;;;;;;2.30;0.40;;;23.50;89.80;;;22.05;52.75;102144.63;5054673;28;20060;-50
2022/06/28 03:19:48;;;;;;;0.98;0.30;;;23.50;72.10;;;22.04;52.90;102142.91;5054767;28;20086;-49
2022/06/28 03:22:14;;;;;;;1.23;0.52;;;;;;;22.04;52.85;102149.31;5054556;28;20110;-49
2022/06/28 03:24:41;;;;;;;0.73;0.40;;;;;;;22.02;52.89;102148.69;5054515;28;20083;-50
2022/06/28 03:27:06;;;;;;;0.60;0.30;;;23.40;73.90;;;22.03;52.70;102144.00;5054797;28;20063;-49
2022/06/28 03:29:32;;;;;;;1.50;0.50;;;;;;;22.02;52.61;102139.50;5054477;28;20056;-50
2022/06/28 03:31:58;;;;;;;1.27;0.50;;;;;;;22.01;52.65;102146.97;5054449;28;20083;-49
2022/06/28 03:34:25;;;;;;;0.75;0.38;;;;;;;22.01;52.87;102151.66;5054439;28;20037;-49
2022/06/28 03:36:50;;;;;;;1.27;0.55;;;23.30;73.80;;;22.01;52.83;102155.28;5054386;28;20041;-59
2022/06/28 03:39:17;;;;;;;1.80;0.50;;;20.90;55.20;;;22.00;52.70;102161.03;5054449;28;20041;-49
2022/06/28 03:41:43;;;;;;;4.20;0.60;;;23.30;82.20;;;22.00;52.87;102163.81;5053953;28;20045;-50
2022/06/28 03:44:09;;;;;;;0.77;0.47;;;23.30;89.50;;;21.98;52.90;102152.91;5054520;28;20068;-49
2022/06/28 03:46:36;;;;;;;1.20;0.38;;;23.20;89.30;;;21.98;52.98;102155.69;5054490;28;20108;-51
2022/06/28 03:49:02;;;;;;;1.20;0.30;;;23.30;89.30;;;21.98;52.82;102168.69;5054120;28;20106;-49
2022/06/28 03:51:28;;;;;;;1.92;0.50;;;23.30;89.40;;;21.97;52.91;102167.81;5054110;28;20037;-50
2022/06/28 03:53:53;;;;;;;2.35;0.45;;;23.40;89.40;;;21.97;52.79;102170.59;5053988;28;20029;-49
2022/06/28 03:56:19;;;;;;;0.90;0.50;;;23.50;89.40;;;21.97;52.85;102169.75;5054300;28;20059;-49
2022/06/28 03:58:45;;;;;;;3.25;0.52;;;23.10;88.90;;;21.96;52.66;102173.59;5053887;28;20357;-50
2022/06/28 04:01:11;;;;;;;1.35;0.60;;;23.40;88.60;;;21.95;52.69;102172.72;5053832;28;20116;-51
2022/06/28 04:03:36;;;;;;;1.10;0.52;;;23.30;69.90;;;21.94;52.72;102173.81;5053727;28;20033;-49
2022/06/28 04:06:03;;;;;;;1.33;0.40;;;23.30;56.40;;;21.95;52.67;102180.19;5053753;28;20509;-51
2022/06/28 04:08:29;;;;;;;0.93;0.40;;;23.20;89.30;;;21.94;52.81;102178.50;5054013;28;20041;-49
2022/06/28 04:11:14;;;;;;;1.85;0.50;;;23.30;89.50;;;21.94;52.86;102181.25;5053643;28;20052;-49
2022/06/28 04:13:53;;;;;;;2.13;0.38;;;23.10;89.30;;;21.93;52.80;102179.53;5053715;28;20037;-59
2022/06/28 04:16:21;;;;;;;1.40;0.50;;;22.80;89.10;;;21.93;52.70;102179.53;5053836;28;20033;-59
2022/06/28 04:18:47;;;;;;;1.10;0.40;;;23.40;89.60;;;21.92;52.95;102188.91;5053597;28;20036;-59
2022/06/28 04:21:16;;;;;;;1.80;0.60;;;23.40;90.00;;;21.92;52.67;102181.44;5053461;28;20033;-59
2022/06/28 04:23:43;;;;;;;0.77;0.40;;;23.00;56.30;;;21.92;52.76;102186.13;5053525;28;20033;-59
2022/06/28 04:26:09;;;;;;;0.70;0.35;;;23.30;89.30;;;21.91;52.75;102181.66;5053368;28;20025;-59
2022/06/28 04:28:35;;;;;;;1.23;0.65;;;23.40;89.90;;;21.91;53.00;102178.91;5053449;28;20471;-59
2022/06/28 04:31:01;;;;;;;1.35;0.40;;;23.20;74.30;;;21.90;52.72;102180.81;5053337;28;20088;-48
2022/06/28 04:33:27;;;;;;;0.88;0.32;;;23.00;89.80;;;21.90;52.85;102180.81;5053607;28;20364;-49
2022/06/28 04:35:53;;;;;;;1.10;0.30;;;23.20;89.90;;;21.89;52.73;102186.53;5053217;28;20501;-49
2022/06/28 04:38:19;;;;;;;1.33;0.68;;;23.50;90.00;;;21.89;52.97;102184.63;5053325;28;20400;-50
2022/06/28 04:40:45;;;;;;;1.67;0.50;;;23.30;89.70;;;21.89;52.65;102181.00;5053018;28;20033;-49
2022/06/28 04:43:11;;;;;;;1.77;0.57;;;23.10;89.50;;;21.88;52.88;102180.16;5053287;28;20091;-50
2022/06/28 04:45:37;;;;;;;1.77;0.45;;;23.00;89.80;;;21.87;52.93;102183.94;5052997;28;20102;-49
2022/06/28 04:48:03;;;;;;;2.53;0.57;;;23.00;89.60;;;21.87;52.88;102181.19;5052988;28;20045;-48
2022/06/28 04:50:29;;;;;;;0.65;0.57;;;23.40;90.00;;;21.87;52.85;102181.19;5053037;28;20185;-59
2022/06/28 04:52:55;;;;;;;1.75;0.57;;;23.20;78.50;;;21.87;52.97;102180.31;5053209;28;20040;-59
2022/06/28 04:55:20;;;;;;;1.00;0.63;;;23.10;79.40;;;21.86;52.82;102179.47;5052949;28;20032;-59
2022/06/28 04:57:46;;;;;;;1.38;0.55;;;;;;;21.86;52.71;102175.81;5052869;28;20043;-59
2022/06/28 05:00:13;;;;;;;1.63;0.40;;;23.10;62.60;;;21.85;52.77;102186.06;5052734;28;20029;-59
2022/06/28 05:02:39;;;;;;;0.90;0.40;;;23.10;89.20;;;21.86;52.87;102185.00;5052610;28;20041;-59
2022/06/28 05:05:06;;;;;;;1.13;0.50;;;23.40;89.40;;;21.86;52.77;102178.59;5052690;28;20044;-59
2022/06/28 05:07:33;;;;;;;3.03;0.88;;;23.20;56.60;;;21.85;52.68;102180.53;5052711;28;20041;-59
2022/06/28 05:10:00;;;;;;;2.20;0.50;;;22.90;82.20;;;21.86;52.88;102184.13;5052707;28;20040;-52
2022/06/28 05:12:26;;;;;;;3.05;0.55;;;23.30;89.80;;;21.83;52.89;102181.78;5052223;28;20051;-54
2022/06/28 05:14:51;;;;;;;0.98;0.35;;;22.90;89.50;;;21.84;52.77;102189.03;5052526;28;20029;-53
2022/06/28 05:17:17;;;;;;;2.63;0.68;;;23.10;89.70;;;21.88;52.64;102190.38;5052501;28;20037;-54
2022/06/28 05:19:43;;;;;;;2.05;0.85;;;22.70;89.50;;;21.87;52.77;102185.84;5052501;28;20033;-54
2022/06/28 05:22:09;;;;;;;1.30;0.45;;;23.20;89.90;;;21.88;52.83;102182.06;5052530;28;20051;-54
2022/06/28 05:24:36;;;;;;;2.67;0.95;;;23.20;79.00;;;21.88;52.69;102188.47;5052660;28;20187;-53
2022/06/28 05:27:03;;;;;;;0.73;0.50;;;23.00;90.00;;;21.88;52.86;102187.63;5052397;28;20037;-51
2022/06/28 05:29:29;;;;;;;2.97;0.77;;;23.00;89.90;;;21.89;52.88;102184.63;5052660;28;20115;-58
2022/06/28 05:31:55;;;;;;;5.63;1.20;;;23.20;90.00;;;21.88;52.90;102188.47;5052283;28;20384;-58
2022/06/28 05:34:21;;;;;;;1.20;0.63;;;23.20;76.90;;;21.87;52.82;102181.19;5052536;28;20430;-57
2022/06/28 05:36:48;;;;;;;2.95;0.73;;;23.20;89.60;;;21.88;52.92;102179.31;5052444;28;20391;-57
2022/06/28 05:39:14;;;;;;;1.88;0.60;;;23.20;89.80;;;21.89;52.94;102183.75;5052287;28;20479;-57
2022/06/28 05:41:41;;;;;;;2.33;0.77;;;23.20;89.30;;;21.88;52.68;102182.94;5052080;28;20411;-57
2022/06/28 05:44:08;;;;;;;1.45;0.52;;;23.10;89.60;;;21.88;52.88;102177.41;5052233;28;20037;-58
2022/06/28 05:46:34;;;;;;;2.83;0.60;;;;;;;21.87;52.90;102180.31;5052144;28;20074;-54
2022/06/28 05:49:01;;;;;;;2.05;0.70;;;23.40;61.80;;;21.88;52.82;102179.31;5052228;28;20037;-50
2022/06/28 05:51:29;;;;;;;4.35;0.80;;;23.30;89.50;;;21.88;52.96;102176.53;5050943;28;20044;-50
2022/06/28 05:53:56;;;;;;;3.08;0.90;;;23.20;89.50;;;21.88;52.83;102179.31;5052176;28;20029;-50
2022/06/28 05:56:22;;;;;;;2.53;0.68;;;23.40;89.40;;;21.88;52.86;102171.84;5052003;28;20082;-53
2022/06/28 05:58:48;;;;;;;2.63;0.80;;;23.20;89.60;;;21.88;53.13;102171.84;5052087;28;20116;-51
2022/06/28 06:01:13;;;;;;;5.20;1.10;;;22.80;90.00;;;21.88;53.00;102168.22;5051986;28;20495;-51
2022/06/28 06:03:39;;;;;;;2.10;0.95;;;23.40;90.30;;;21.87;53.37;102166.47;5052003;28;20036;-53
2022/06/28 06:06:06;;;;;;;2.78;0.70;;;23.30;90.40;;;21.86;53.33;102165.59;5052108;28;20044;-51
2022/06/28 06:08:32;;;;;;;2.97;0.80;;;23.30;90.50;;;21.85;53.39;102172.22;5052142;28;20052;-52
2022/06/28 06:10:58;;;;;;;3.00;0.90;;;;;;;21.85;53.22;102171.38;5051973;28;20033;-51
2022/06/28 06:13:24;;;;;;;5.15;0.98;;;;;;;21.86;53.01;102173.06;5051877;28;20116;-50
2022/06/28 06:15:51;;;;;;;2.15;0.80;;;;;;;21.86;53.18;102173.91;5051969;28;20037;-50
2022/06/28 06:18:16;;;;;;;2.78;0.70;;;22.60;77.80;;;21.87;52.90;102169.22;5052078;28;20451;-52
2022/06/28 06:20:42;;;;;;;2.28;0.68;;;;;;;21.86;53.01;102176.69;5051856;28;20107;-52
2022/06/28 06:23:08;;;;;;;4.00;0.93;;;;;;;21.87;52.91;102180.31;5051861;28;20064;-55
2022/06/28 06:25:35;;;;;;;1.27;0.50;;;;;;;21.87;52.84;102185.84;5055372;28;20082;-53
2022/06/28 06:28:00;;;;;;;4.22;1.02;;;23.40;67.30;;;21.88;52.90;102182.06;5055426;28;20495;-55
2022/06/28 06:30:27;;;;;;;1.17;0.50;;;;;;;21.89;53.24;102184.63;5055368;28;20119;-54
2022/06/28 06:32:53;;;;;;;4.10;1.10;;;23.10;89.80;;;21.90;53.19;102182.72;5054519;28;20036;-54
2022/06/28 06:35:19;;;;;;;3.15;1.10;;;23.20;71.80;;;21.90;53.50;102180.81;5054898;28;20033;-55
2022/06/28 06:37:44;;;;;;;5.45;0.70;;;23.40;77.90;;;21.89;53.50;102179.09;5054321;28;20590;-54
2022/06/28 06:40:11;;;;;;;4.88;0.82;;;23.30;56.90;;;21.90;53.23;102179.94;5055296;28;20064;-54
2022/06/28 06:42:36;;;;;;;2.40;0.70;;;23.50;74.70;;;21.90;53.17;102185.47;5055118;28;20045;-54
2022/06/28 06:45:03;;;;;;;2.80;0.80;;;23.30;56.50;;;21.90;53.32;102185.47;5055182;28;20544;-50
2022/06/28 06:47:28;;;;;;;5.05;1.20;;;23.20;86.40;;;21.90;53.18;102185.47;5055339;28;20037;-55
2022/06/28 06:49:54;;;;;;;3.85;1.00;;;;;;;21.90;53.34;102185.47;5055081;28;20480;-52
2022/06/28 06:52:21;;;;;;;3.20;0.88;;;;;;;21.90;53.00;102182.72;5054961;28;20406;-53
2022/06/28 06:54:46;;;;;;;5.90;1.10;;;23.20;67.50;;;21.90;53.09;102182.72;5054954;28;20032;-52
2022/06/28 06:57:13;;;;;;;2.33;0.80;;;;;;;21.90;53.13;102182.72;5054961;28;20480;-52
2022/06/28 06:59:39;;;;;;;3.22;1.02;;;23.40;88.60;;;21.90;53.09;102182.72;5054914;28;20036;-54
2022/06/28 07:02:05;;;;;;;3.17;1.05;;;;;;;21.91;53.12;102187.22;5056219;22;20050;-54
2022/06/28 07:04:31;;;;;;;3.95;0.85;;;23.20;88.10;;;21.90;52.99;102191.03;5034995;28;20029;-55
2022/06/28 07:06:57;;;;;;;4.00;0.95;;;23.60;88.70;;;21.90;53.09;102196.56;5034833;28;20099;-54
2022/06/28 07:09:23;;;;;;;3.50;0.90;;;23.60;88.60;;;21.90;53.00;102194.66;5034857;28;20030;-54
2022/06/28 07:11:49;;;;;;;4.28;0.98;;;23.70;69.20;;;21.90;53.04;102200.19;5034815;28;20065;-53
2022/06/28 07:14:14;;;;;;;2.70;1.00;;;23.20;72.10;;;21.90;52.94;102196.56;5035023;28;20435;-51
2022/06/28 07:16:41;;;;;;;4.38;1.23;;;;;;;21.89;52.91;102198.47;5034635;28;20033;-57
2022/06/28 07:19:06;;;;;;;2.80;1.13;;;23.30;67.90;;;21.91;52.98;102195.53;5034777;28;20092;-51
2022/06/28 07:21:32;;;;;;;4.85;1.20;;;;;;;21.91;53.00;102195.53;5034524;28;20061;-50
2022/06/28 07:23:59;;;;;;;3.55;1.10;;;;;;;21.92;52.89;102199.97;5034620;28;20109;-51
2022/06/28 07:26:25;;;;;;;4.00;1.00;;;;;;;21.92;52.86;102191.66;5034629;28;20484;-52
2022/06/28 07:28:51;;;;;;;4.05;0.80;;;23.50;78.30;;;21.92;52.94;102198.06;5034459;28;20087;-50
2022/06/28 07:31:16;;;;;;;3.45;1.10;;;23.40;77.70;;;21.93;52.80;102198.94;5034369;28;20029;-53
2022/06/28 07:33:43;;;;;;;3.10;1.10;;;;;;;21.93;52.82;102198.94;5034469;28;20033;-49
2022/06/28 07:36:09;;;;;;;4.30;0.90;;;23.40;55.90;;;21.94;52.82;102197.88;5033227;28;20029;-56
2022/06/28 07:38:34;;;;;;;3.90;0.85;;;23.20;77.60;;;21.93;52.53;102199.78;5034394;28;20086;-50
2022/06/28 07:41:01;;;;;;;4.43;1.25;;;;;;;21.93;52.55;102202.56;5034555;28;20113;-50
2022/06/28 07:43:26;;;;;;;2.58;0.93;;;23.20;67.00;;;21.93;52.54;102197.03;5034296;28;20033;-51
2022/06/28 07:45:52;;;;;;;2.13;1.00;;;23.40;55.60;;;21.93;52.40;102194.25;5034309;28;20048;-52
2022/06/28 07:48:19;;;;;;;4.28;1.10;;;;;;;21.93;52.53;102194.25;5034288;28;20083;-50
2022/06/28 07:53:33;;;;;;;5.57;1.50;;;23.50;87.50;;;21.95;52.47;102194.03;5033436;28;20152;-49
2022/06/28 07:56:00;;;;;;;4.22;0.90;;;23.20;87.20;;;21.95;52.32;102183.81;5034380;28;20041;-50
2022/06/28 07:58:26;;;;;;;5.90;1.00;;;23.30;87.40;;;21.96;52.69;102191.06;5034130;28;20500;-50
2022/06/28 08:00:51;;;;;;;2.42;0.93;;;23.40;87.20;;;21.96;52.51;102191.06;5033984;28;20044;-51
2022/06/28 08:03:17;;;;;;;5.05;0.98;;;23.50;87.40;;;21.98;52.26;102190.84;5033527;28;20054;-51
2022/06/28 08:05:43;;;;;;;5.53;1.08;;;23.30;87.20;;;21.97;52.36;102183.63;5033897;28;20083;-51
2022/06/28 08:08:10;;;;;;;3.72;1.00;;;23.40;55.20;;;21.97;52.15;102183.63;5034082;28;20030;-50
2022/06/28 08:10:36;;;;;;;5.30;1.45;;;23.60;86.90;;;21.98;52.19;102182.53;5033949;28;20454;-50
2022/06/28 08:13:02;;;;;;;4.18;1.00;;;23.40;87.20;;;21.98;52.05;102183.41;5033809;28;20029;-56
2022/06/28 08:15:28;;;;;;;3.90;0.93;;;;;;;21.97;52.27;102181.69;5033805;28;20087;-50
2022/06/28 08:17:54;;;;;;;2.10;0.82;;;;;;;21.98;52.20;102177.84;5033698;28;20037;-50
2022/06/28 08:20:21;;;;;;;2.67;0.80;;;23.50;55.40;;;21.98;52.26;102179.75;5033912;28;20047;-52
2022/06/28 08:22:47;;;;;;;2.13;0.93;;;23.40;87.40;;;21.99;52.36;102187.88;5033784;28;20396;-52
2022/06/28 08:25:13;;;;;;;5.00;1.20;;;23.70;87.90;;;21.99;52.29;102184.25;5033574;28;20034;-53
2022/06/28 08:27:39;;;;;;;3.25;0.95;;;23.60;87.70;;;21.99;52.29;102184.25;5033667;28;20031;-52
2022/06/28 08:30:06;;;;;;;3.40;0.90;;;23.30;72.60;;;21.92;52.73;102188.91;5033439;28;20033;-50
2022/06/28 08:32:32;;;;;;;3.83;1.20;;;;;;;21.89;52.52;102184.63;5033755;28;20021;-47
2022/06/28 08:34:59;;;;;;;2.83;0.98;;;;;;;21.94;52.95;102179.34;5033357;28;20057;-48
2022/06/28 08:37:25;;;;;;;4.50;1.17;;;;;;;22.01;52.81;102187.66;5033390;28;20045;-46
2022/06/28 08:39:51;;;;;;;3.25;1.40;;;23.20;72.20;;;22.02;52.99;102183.84;5033258;28;20112;-46
2022/06/28 08:42:26;;;;;;;3.40;1.15;;;23.60;64.20;;;22.09;52.82;102185.59;5033108;28;20184;-45
2022/06/28 08:44:52;;;;;;;2.65;0.90;;;23.80;87.90;;;22.18;52.75;102177.97;5031970;28;20032;-46
2022/06/28 08:47:20;;;;;;;5.65;1.23;;;23.70;55.40;;;22.27;52.33;102178.66;5032786;28;20412;-48
2022/06/28 08:50:00;;;;;;;4.05;1.13;;;23.80;54.80;;;22.34;52.08;102176.75;5033390;28;20032;-53
2022/06/28 08:52:26;;;;;;;;;;;23.80;55.80;;;22.44;52.62;102180.84;5033562;28;20042;-46
2022/06/28 08:54:53;;;;;;;3.60;1.15;;;23.60;87.20;;;22.49;52.28;102175.53;5033219;28;19920;-46
2022/06/28 08:57:20;;;;;;;3.63;1.27;;;24.10;56.90;;;22.58;52.23;102171.50;5032975;28;20038;-49
2022/06/28 08:59:48;;;;;;;6.22;1.27;;;24.20;55.40;;;22.68;52.11;102162.81;5033179;28;20442;-44
2022/06/28 09:02:15;;;;;;;5.03;1.10;;;23.80;87.10;;;22.77;52.17;102167.09;5032576;28;20514;-46
2022/06/28 09:04:49;;;;;;;2.15;0.90;;;24.10;87.20;;;22.87;52.51;102169.44;5032938;28;20037;-45
2022/06/28 09:07:15;;;;;;;2.60;0.80;;;23.90;87.00;;;22.97;52.50;102161.56;5032883;28;20033;-52
2022/06/28 09:09:41;;;;;;;1.75;0.70;;;24.40;86.70;;;23.05;52.21;102164.13;5032855;28;20569;-51
2022/06/28 09:12:07;;;;;;;2.10;0.90;;;24.30;64.80;;;23.12;52.20;102153.91;5032690;28;20033;-51
2022/06/28 09:14:34;;;;;;;1.83;0.70;;;24.30;86.50;;;23.18;51.99;102155.81;5032745;28;20396;-51
2022/06/28 09:17:24;;;;;;;1.38;0.60;;;24.20;86.20;;;23.28;51.82;102155.41;5032652;28;20044;-52
2022/06/28 09:20:00;;;;;;;5.05;0.93;;;24.90;73.70;;;23.36;52.09;102150.50;5032759;28;20147;-53
2022/06/28 09:22:42;;;;;;;3.80;1.27;;;25.00;86.50;;;23.44;51.68;102141.09;5032549;28;20033;-51
2022/06/28 09:25:28;;;;;;;2.00;0.90;;;24.90;54.60;;;23.50;52.26;102138.31;5032589;28;20037;-49
2022/06/28 09:28:00;;;;;;;2.25;1.00;;;25.40;78.90;;;23.55;51.67;102132.97;5032614;28;20037;-46
2022/06/28 09:30:31;;;;;;;2.03;0.70;;;25.10;86.20;;;23.61;52.01;102128.47;5014726;28;20554;-46
2022/06/28 09:32:57;;;;;;;4.82;0.95;;;25.10;80.40;;;23.68;51.62;102138.50;5032380;28;20117;-46
2022/06/28 09:35:24;;;;;;;5.30;1.13;;;25.00;86.20;;;23.74;52.08;102134.84;5031160;28;20438;-47
2022/06/28 09:37:52;;;;;;;2.72;0.90;;;24.90;55.00;;;23.80;52.07;102138.69;5032376;28;20033;-46
2022/06/28 09:40:19;;;;;;;2.67;1.02;;;25.40;86.40;;;23.85;51.85;102138.00;5032415;28;20061;-46
2022/06/28 09:43:06;;;;;;;2.80;0.82;;;25.50;86.00;;;23.91;51.20;102142.69;5030989;28;20033;-46
2022/06/28 09:45:34;;;;;;;2.83;1.00;;;25.30;53.80;;;23.98;50.79;102138.00;5032352;28;20036;-45
2022/06/28 09:48:00;;;;;;;3.55;0.85;;;25.00;85.60;;;24.03;50.46;102136.25;5032319;28;20045;-45
2022/06/28 09:50:26;;;;;;;2.78;0.50;;;;;;;24.08;50.80;102136.44;5032461;28;20388;-46
2022/06/28 09:52:52;;;;;;;4.10;0.68;;;25.50;54.20;;;24.13;51.03;102133.03;5030990;28;20037;-46
2022/06/28 09:55:19;;;;;;;2.67;0.70;;;25.60;54.10;;;24.16;51.07;102135.38;5032234;28;20491;-47
2022/06/28 09:57:47;;;;;;;1.45;0.75;;;25.50;85.20;;;24.21;50.68;102124.44;5033070;28;20038;-47
2022/06/28 10:00:17;;;;;;;2.78;0.68;;;25.50;85.10;;;24.26;50.83;102131.03;5036312;28;20029;-48
2022/06/28 10:02:43;;;;;;;4.80;0.90;;;25.60;77.70;;;24.30;51.37;102126.75;5035866;28;20045;-48
2022/06/28 10:05:10;;;;;;;2.25;0.70;;;25.30;85.10;;;24.36;51.54;102121.38;5036266;28;20080;-54
2022/06/28 10:07:37;;;;;;;4.22;0.65;;;24.30;53.20;;;24.38;51.24;102113.69;5036090;28;20538;-52
2022/06/28 10:10:06;;;;;;;1.05;0.60;;;25.80;85.80;;;24.45;51.23;102114.47;5036232;28;20034;-53
2022/06/28 10:15:19;;;;;;;2.15;0.60;;;25.70;60.10;;;24.52;51.67;102118.94;5035946;28;20416;-53
2022/06/28 10:18:20;;;;;;;2.33;0.60;;;26.20;85.20;;;24.57;50.94;102112.69;5036072;28;20033;-52
2022/06/28 10:20:48;;;;;;;1.30;0.45;;;26.00;54.10;;;24.60;51.06;102120.59;5019126;28;20044;-53
2022/06/28 10:23:44;;;;;;;3.03;0.70;;;26.00;84.90;;;24.62;51.06;102113.72;5034645;28;20381;-45
2022/06/28 10:26:15;;;;;;;1.67;0.70;;;25.80;84.50;;;24.67;50.53;102100.00;5035756;28;20076;-46
2022/06/28 10:28:43;;;;;;;1.40;0.70;;;26.40;85.60;;;24.73;51.23;102093.53;5035995;28;20038;-46
2022/06/28 10:31:21;;;;;;;1.20;0.60;;;26.40;54.20;;;24.75;50.17;102099.72;5035640;28;20042;-45
2022/06/28 10:33:56;;;;;;;1.23;0.60;;;26.40;85.20;;;24.78;50.64;102099.28;5035513;28;20067;-45
2022/06/28 10:36:24;;;;;;;3.85;0.95;;;26.30;85.20;;;24.81;50.91;102096.06;5035373;28;20026;-47
2022/06/28 10:39:08;;;;;;;3.63;0.73;;;26.10;53.50;;;24.86;51.04;102101.81;5035479;28;20038;-47
2022/06/28 10:41:49;;;;;;;3.05;0.73;;;26.10;68.90;;;24.88;50.40;102094.06;5035417;28;20098;-53